Ana Sayfa
METAR-TAF:

METAR-TAF

Havaalanları :

Sonora Municipal Airport

Sonora, Teksas, Amerika Birleşik Devletleri

Enlem: 30-35-08N, Boylam: 100-38-54W, yükseklik: 652 m

Güncel hava durumu gözlemi

Rapor saat 05:55 UTC de 18 dakika önce yapıldı.
Rüzgar güneydan 8 kt
Sıcaklık
Basınç 1018 hPa
Görüş mesafesi: 16.1 km
Açık gökyüzü

METAR: KSOA 160555Z AUTO 18008KT 10SM CLR A3007 RMK AO2

Saat: 01:13 (06:13 UTC)

Tahmin

Rapor saat 05:21 UTC de 52 dakika önce yapıldı.
Ayın 16'si saat 06 UTC'den ayın 17'si saat 06 UTC'ye kadar geçerli Tahmin
Rüzgar güneydan 11 kt
Görüş mesafesi: 10 km
Açık gökyüzü
Ayın 16'si saat 2200 UTC'den
Rüzgar güney/güneydoğudan 7 kt
Görüş mesafesi: 10 km
Açık gökyüzü

TAF: KSOA 160521Z 1606/1706 17011KT P6SM SKC FM162200 16007KT P6SM SKC

4.000'den fazla havaalanı için hava durumu gözlemleri ve tahminleri (METAR ve TAF raporları).

Kullanılabilir istasyonlar harita üzerinde sarı ve kırmızı noktalarla gösterilir.

İstasyonun adını görmek için fareyi noktanın üzerinde gezdirin.

Sonrasında hava gözlem ve tahminlerini görmek için tıklayın.

Haritayı değiştirmek için: yaklaştırmak için siyah artı işaretli yeşil düğmeye ve uzaklaştırmak için de eksi işaretli düğmeye hızla tıklayın; bitişik haritalar için yeşil okları kullanın.


METAR-TAF: